sensor_id;sensor_type;location;lat;lon;timestamp;P1;durP1;ratioP1;P2;durP2;ratioP2
21579;SDS011;10951;59.656;9.666;2022-12-18T00:03:46;0.20;;;0.20;;
21579;SDS011;10951;59.656;9.666;2022-12-18T00:06:14;0.03;;;0.03;;
21579;SDS011;10951;59.656;9.666;2022-12-18T00:08:42;1.30;;;0.65;;
21579;SDS011;10951;59.656;9.666;2022-12-18T00:11:12;0.20;;;0.20;;
21579;SDS011;10951;59.656;9.666;2022-12-18T00:13:40;0.10;;;0.10;;
21579;SDS011;10951;59.656;9.666;2022-12-18T00:16:12;0.70;;;0.70;;
21579;SDS011;10951;59.656;9.666;2022-12-18T00:18:41;0.20;;;0.20;;
21579;SDS011;10951;59.656;9.666;2022-12-18T00:21:09;0.35;;;0.25;;
21579;SDS011;10951;59.656;9.666;2022-12-18T00:23:37;0.40;;;0.40;;
21579;SDS011;10951;59.656;9.666;2022-12-18T00:26:07;0.10;;;0.10;;
21579;SDS011;10951;59.656;9.666;2022-12-18T00:28:36;0.10;;;0.10;;
21579;SDS011;10951;59.656;9.666;2022-12-18T00:31:04;0.10;;;0.10;;
21579;SDS011;10951;59.656;9.666;2022-12-18T00:33:33;1.75;;;1.05;;
21579;SDS011;10951;59.656;9.666;2022-12-18T00:36:04;0.10;;;0.10;;
21579;SDS011;10951;59.656;9.666;2022-12-18T00:38:32;0.53;;;0.53;;
21579;SDS011;10951;59.656;9.666;2022-12-18T00:40:59;0.10;;;0.10;;
21579;SDS011;10951;59.656;9.666;2022-12-18T00:43:27;0.38;;;0.38;;
21579;SDS011;10951;59.656;9.666;2022-12-18T00:45:54;0.98;;;0.95;;
21579;SDS011;10951;59.656;9.666;2022-12-18T00:48:21;0.35;;;0.35;;
21579;SDS011;10951;59.656;9.666;2022-12-18T00:50:48;2.75;;;2.60;;
21579;SDS011;10951;59.656;9.666;2022-12-18T00:53:16;0.30;;;0.30;;
21579;SDS011;10951;59.656;9.666;2022-12-18T00:58:12;0.63;;;0.63;;
21579;SDS011;10951;59.656;9.666;2022-12-18T01:00:40;0.10;;;0.10;;
21579;SDS011;10951;59.656;9.666;2022-12-18T01:03:10;0.20;;;0.20;;
21579;SDS011;10951;59.656;9.666;2022-12-18T01:05:40;0.53;;;0.53;;
21579;SDS011;10951;59.656;9.666;2022-12-18T01:08:08;1.00;;;0.93;;
21579;SDS011;10951;59.656;9.666;2022-12-18T01:10:35;0.60;;;0.40;;
21579;SDS011;10951;59.656;9.666;2022-12-18T01:13:02;0.80;;;0.80;;
21579;SDS011;10951;59.656;9.666;2022-12-18T01:15:29;0.10;;;0.10;;
21579;SDS011;10951;59.656;9.666;2022-12-18T01:17:56;0.52;;;0.30;;
21579;SDS011;10951;59.656;9.666;2022-12-18T01:20:25;0.10;;;0.10;;
21579;SDS011;10951;59.656;9.666;2022-12-18T01:22:52;0.10;;;0.10;;
21579;SDS011;10951;59.656;9.666;2022-12-18T01:25:19;0.40;;;0.40;;
21579;SDS011;10951;59.656;9.666;2022-12-18T01:27:46;0.10;;;0.10;;
21579;SDS011;10951;59.656;9.666;2022-12-18T01:30:13;0.10;;;0.10;;
21579;SDS011;10951;59.656;9.666;2022-12-18T01:32:40;0.20;;;0.20;;
21579;SDS011;10951;59.656;9.666;2022-12-18T01:35:07;0.10;;;0.10;;
21579;SDS011;10951;59.656;9.666;2022-12-18T01:37:34;1.15;;;1.02;;
21579;SDS011;10951;59.656;9.666;2022-12-18T01:40:01;0.10;;;0.10;;
21579;SDS011;10951;59.656;9.666;2022-12-18T01:42:28;0.10;;;0.10;;
21579;SDS011;10951;59.656;9.666;2022-12-18T01:50:20;0.50;;;0.50;;
21579;SDS011;10951;59.656;9.666;2022-12-18T01:52:56;0.50;;;0.50;;
21579;SDS011;10951;59.656;9.666;2022-12-18T01:55:30;0.13;;;0.13;;
21579;SDS011;10951;59.656;9.666;2022-12-18T01:58:13;0.17;;;0.17;;
21579;SDS011;10951;59.656;9.666;2022-12-18T02:00:41;1.53;;;1.43;;
21579;SDS011;10951;59.656;9.666;2022-12-18T02:03:08;0.30;;;0.30;;
21579;SDS011;10951;59.656;9.666;2022-12-18T02:05:46;0.10;;;0.10;;
21579;SDS011;10951;59.656;9.666;2022-12-18T02:22:21;0.10;;;0.10;;
21579;SDS011;10951;59.656;9.666;2022-12-18T02:27:52;0.10;;;0.10;;
21579;SDS011;10951;59.656;9.666;2022-12-18T02:30:20;0.10;;;0.10;;
21579;SDS011;10951;59.656;9.666;2022-12-18T02:32:49;0.10;;;0.10;;
21579;SDS011;10951;59.656;9.666;2022-12-18T02:35:20;0.10;;;0.10;;
21579;SDS011;10951;59.656;9.666;2022-12-18T02:37:53;0.10;;;0.10;;
21579;SDS011;10951;59.656;9.666;2022-12-18T02:42:50;0.10;;;0.10;;
21579;SDS011;10951;59.656;9.666;2022-12-18T02:45:18;0.10;;;0.10;;
21579;SDS011;10951;59.656;9.666;2022-12-18T02:47:47;0.10;;;0.10;;
21579;SDS011;10951;59.656;9.666;2022-12-18T03:01:15;0.10;;;0.10;;
21579;SDS011;10951;59.656;9.666;2022-12-18T03:06:54;0.22;;;0.22;;
21579;SDS011;10951;59.656;9.666;2022-12-18T03:09:27;0.10;;;0.10;;
21579;SDS011;10951;59.656;9.666;2022-12-18T03:12:10;0.10;;;0.10;;
21579;SDS011;10951;59.656;9.666;2022-12-18T03:15:17;0.10;;;0.10;;
21579;SDS011;10951;59.656;9.666;2022-12-18T03:17:59;0.10;;;0.10;;
21579;SDS011;10951;59.656;9.666;2022-12-18T03:20:35;0.10;;;0.10;;
21579;SDS011;10951;59.656;9.666;2022-12-18T03:23:13;0.10;;;0.10;;
21579;SDS011;10951;59.656;9.666;2022-12-18T03:25:47;0.28;;;0.28;;
21579;SDS011;10951;59.656;9.666;2022-12-18T03:28:20;0.10;;;0.10;;
21579;SDS011;10951;59.656;9.666;2022-12-18T03:30:56;0.10;;;0.10;;
21579;SDS011;10951;59.656;9.666;2022-12-18T03:33:35;0.10;;;0.10;;
21579;SDS011;10951;59.656;9.666;2022-12-18T03:36:07;0.10;;;0.10;;
21579;SDS011;10951;59.656;9.666;2022-12-18T03:38:34;0.10;;;0.10;;
21579;SDS011;10951;59.656;9.666;2022-12-18T03:43:46;0.10;;;0.10;;
21579;SDS011;10951;59.656;9.666;2022-12-18T03:52:22;0.10;;;0.10;;
21579;SDS011;10951;59.656;9.666;2022-12-18T03:54:51;0.20;;;0.20;;
21579;SDS011;10951;59.656;9.666;2022-12-18T03:57:22;0.10;;;0.10;;
21579;SDS011;10951;59.656;9.666;2022-12-18T03:59:57;0.10;;;0.10;;
21579;SDS011;10951;59.656;9.666;2022-12-18T04:02:40;0.10;;;0.10;;
21579;SDS011;10951;59.656;9.666;2022-12-18T04:05:24;1.40;;;1.30;;
21579;SDS011;10951;59.656;9.666;2022-12-18T04:07:54;0.20;;;0.20;;
21579;SDS011;10951;59.656;9.666;2022-12-18T04:10:22;0.10;;;0.10;;
21579;SDS011;10951;59.656;9.666;2022-12-18T04:12:50;0.10;;;0.10;;
21579;SDS011;10951;59.656;9.666;2022-12-18T04:15:17;0.20;;;0.20;;
21579;SDS011;10951;59.656;9.666;2022-12-18T04:17:48;0.10;;;0.10;;
21579;SDS011;10951;59.656;9.666;2022-12-18T04:20:20;0.20;;;0.20;;
21579;SDS011;10951;59.656;9.666;2022-12-18T04:22:47;0.20;;;0.20;;
21579;SDS011;10951;59.656;9.666;2022-12-18T04:25:16;0.10;;;0.10;;
21579;SDS011;10951;59.656;9.666;2022-12-18T04:27:55;0.10;;;0.10;;
21579;SDS011;10951;59.656;9.666;2022-12-18T04:30:22;0.13;;;0.13;;
21579;SDS011;10951;59.656;9.666;2022-12-18T04:32:49;0.10;;;0.10;;
21579;SDS011;10951;59.656;9.666;2022-12-18T04:35:18;0.10;;;0.10;;
21579;SDS011;10951;59.656;9.666;2022-12-18T04:37:45;0.10;;;0.10;;
21579;SDS011;10951;59.656;9.666;2022-12-18T04:42:44;0.10;;;0.10;;
21579;SDS011;10951;59.656;9.666;2022-12-18T04:45:11;0.10;;;0.10;;
21579;SDS011;10951;59.656;9.666;2022-12-18T04:47:37;0.10;;;0.10;;
21579;SDS011;10951;59.656;9.666;2022-12-18T04:50:05;0.10;;;0.10;;
21579;SDS011;10951;59.656;9.666;2022-12-18T04:52:32;0.10;;;0.10;;
21579;SDS011;10951;59.656;9.666;2022-12-18T04:54:59;0.20;;;0.20;;
21579;SDS011;10951;59.656;9.666;2022-12-18T04:57:26;0.10;;;0.10;;
21579;SDS011;10951;59.656;9.666;2022-12-18T04:59:53;0.10;;;0.10;;
21579;SDS011;10951;59.656;9.666;2022-12-18T05:02:20;0.10;;;0.10;;
21579;SDS011;10951;59.656;9.666;2022-12-18T05:04:47;0.10;;;0.10;;
21579;SDS011;10951;59.656;9.666;2022-12-18T05:07:14;0.10;;;0.10;;
21579;SDS011;10951;59.656;9.666;2022-12-18T05:09:41;0.20;;;0.20;;
21579;SDS011;10951;59.656;9.666;2022-12-18T05:12:07;0.10;;;0.10;;
21579;SDS011;10951;59.656;9.666;2022-12-18T05:14:34;0.10;;;0.10;;
21579;SDS011;10951;59.656;9.666;2022-12-18T05:17:01;0.10;;;0.10;;
21579;SDS011;10951;59.656;9.666;2022-12-18T05:19:28;0.10;;;0.10;;
21579;SDS011;10951;59.656;9.666;2022-12-18T05:21:55;0.15;;;0.15;;
21579;SDS011;10951;59.656;9.666;2022-12-18T05:24:22;0.20;;;0.20;;
21579;SDS011;10951;59.656;9.666;2022-12-18T05:26:49;0.20;;;0.20;;
21579;SDS011;10951;59.656;9.666;2022-12-18T05:29:16;0.20;;;0.20;;
21579;SDS011;10951;59.656;9.666;2022-12-18T05:31:43;0.20;;;0.20;;
21579;SDS011;10951;59.656;9.666;2022-12-18T05:34:10;0.10;;;0.10;;
21579;SDS011;10951;59.656;9.666;2022-12-18T05:36:38;0.20;;;0.20;;
21579;SDS011;10951;59.656;9.666;2022-12-18T05:39:05;0.10;;;0.10;;
21579;SDS011;10951;59.656;9.666;2022-12-18T05:41:32;0.30;;;0.30;;
21579;SDS011;10951;59.656;9.666;2022-12-18T05:43:59;0.10;;;0.10;;
21579;SDS011;10951;59.656;9.666;2022-12-18T05:46:26;0.13;;;0.13;;
21579;SDS011;10951;59.656;9.666;2022-12-18T05:48:53;0.60;;;0.50;;
21579;SDS011;10951;59.656;9.666;2022-12-18T05:51:21;0.20;;;0.20;;
21579;SDS011;10951;59.656;9.666;2022-12-18T05:53:48;0.10;;;0.10;;
21579;SDS011;10951;59.656;9.666;2022-12-18T05:56:16;0.20;;;0.20;;
21579;SDS011;10951;59.656;9.666;2022-12-18T05:58:45;0.10;;;0.10;;
21579;SDS011;10951;59.656;9.666;2022-12-18T06:01:18;1.00;;;0.82;;
21579;SDS011;10951;59.656;9.666;2022-12-18T06:03:47;0.20;;;0.20;;
21579;SDS011;10951;59.656;9.666;2022-12-18T06:06:22;0.10;;;0.10;;
21579;SDS011;10951;59.656;9.666;2022-12-18T06:08:50;0.15;;;0.15;;
21579;SDS011;10951;59.656;9.666;2022-12-18T06:11:20;0.10;;;0.10;;
21579;SDS011;10951;59.656;9.666;2022-12-18T06:13:55;0.10;;;0.10;;
21579;SDS011;10951;59.656;9.666;2022-12-18T06:16:25;0.10;;;0.10;;
21579;SDS011;10951;59.656;9.666;2022-12-18T06:21:20;0.40;;;0.40;;
21579;SDS011;10951;59.656;9.666;2022-12-18T06:23:46;0.10;;;0.10;;
21579;SDS011;10951;59.656;9.666;2022-12-18T06:26:13;0.10;;;0.10;;
21579;SDS011;10951;59.656;9.666;2022-12-18T06:28:40;0.10;;;0.10;;
21579;SDS011;10951;59.656;9.666;2022-12-18T06:31:08;0.20;;;0.20;;
21579;SDS011;10951;59.656;9.666;2022-12-18T06:33:35;0.10;;;0.10;;
21579;SDS011;10951;59.656;9.666;2022-12-18T06:36:05;0.10;;;0.10;;
21579;SDS011;10951;59.656;9.666;2022-12-18T06:38:38;0.10;;;0.10;;
21579;SDS011;10951;59.656;9.666;2022-12-18T06:41:08;0.10;;;0.10;;
21579;SDS011;10951;59.656;9.666;2022-12-18T06:43:42;1.08;;;0.90;;
21579;SDS011;10951;59.656;9.666;2022-12-18T06:46:10;0.40;;;0.40;;
21579;SDS011;10951;59.656;9.666;2022-12-18T06:48:38;0.20;;;0.20;;
21579;SDS011;10951;59.656;9.666;2022-12-18T06:51:05;0.20;;;0.20;;
21579;SDS011;10951;59.656;9.666;2022-12-18T06:53:32;0.10;;;0.10;;
21579;SDS011;10951;59.656;9.666;2022-12-18T06:56:03;0.10;;;0.10;;
21579;SDS011;10951;59.656;9.666;2022-12-18T06:58:36;0.10;;;0.10;;
21579;SDS011;10951;59.656;9.666;2022-12-18T07:01:04;0.10;;;0.10;;
21579;SDS011;10951;59.656;9.666;2022-12-18T07:03:33;0.20;;;0.20;;
21579;SDS011;10951;59.656;9.666;2022-12-18T07:06:00;0.43;;;0.43;;
21579;SDS011;10951;59.656;9.666;2022-12-18T07:08:28;0.10;;;0.10;;
21579;SDS011;10951;59.656;9.666;2022-12-18T07:10:56;0.45;;;0.45;;
21579;SDS011;10951;59.656;9.666;2022-12-18T07:13:23;0.10;;;0.10;;
21579;SDS011;10951;59.656;9.666;2022-12-18T07:15:50;0.88;;;0.88;;
21579;SDS011;10951;59.656;9.666;2022-12-18T07:18:17;0.52;;;0.52;;
21579;SDS011;10951;59.656;9.666;2022-12-18T07:20:43;0.10;;;0.10;;
21579;SDS011;10951;59.656;9.666;2022-12-18T07:23:12;0.20;;;0.20;;
21579;SDS011;10951;59.656;9.666;2022-12-18T07:25:39;0.52;;;0.52;;
21579;SDS011;10951;59.656;9.666;2022-12-18T07:28:06;0.88;;;0.88;;
21579;SDS011;10951;59.656;9.666;2022-12-18T07:30:39;2.15;;;1.90;;
21579;SDS011;10951;59.656;9.666;2022-12-18T07:33:07;0.30;;;0.30;;
21579;SDS011;10951;59.656;9.666;2022-12-18T07:35:34;0.32;;;0.32;;
21579;SDS011;10951;59.656;9.666;2022-12-18T07:38:01;0.50;;;0.50;;
21579;SDS011;10951;59.656;9.666;2022-12-18T07:40:27;1.35;;;1.35;;
21579;SDS011;10951;59.656;9.666;2022-12-18T07:42:54;1.52;;;1.42;;
21579;SDS011;10951;59.656;9.666;2022-12-18T07:45:21;0.10;;;0.10;;
21579;SDS011;10951;59.656;9.666;2022-12-18T07:47:48;0.32;;;0.32;;
21579;SDS011;10951;59.656;9.666;2022-12-18T07:50:15;0.17;;;0.17;;
21579;SDS011;10951;59.656;9.666;2022-12-18T07:52:42;0.15;;;0.15;;
21579;SDS011;10951;59.656;9.666;2022-12-18T07:55:09;0.88;;;0.88;;
21579;SDS011;10951;59.656;9.666;2022-12-18T07:57:36;0.90;;;0.90;;
21579;SDS011;10951;59.656;9.666;2022-12-18T08:00:22;0.30;;;0.30;;
21579;SDS011;10951;59.656;9.666;2022-12-18T08:02:49;0.35;;;0.35;;
21579;SDS011;10951;59.656;9.666;2022-12-18T08:05:16;0.30;;;0.30;;
21579;SDS011;10951;59.656;9.666;2022-12-18T08:07:43;0.45;;;0.45;;
21579;SDS011;10951;59.656;9.666;2022-12-18T08:10:10;0.20;;;0.20;;
21579;SDS011;10951;59.656;9.666;2022-12-18T08:12:38;0.30;;;0.30;;
21579;SDS011;10951;59.656;9.666;2022-12-18T08:15:05;0.77;;;0.77;;
21579;SDS011;10951;59.656;9.666;2022-12-18T08:17:32;0.38;;;0.38;;
21579;SDS011;10951;59.656;9.666;2022-12-18T08:20:00;0.95;;;0.95;;
21579;SDS011;10951;59.656;9.666;2022-12-18T08:22:27;2.20;;;1.85;;
21579;SDS011;10951;59.656;9.666;2022-12-18T08:24:53;0.55;;;0.55;;
21579;SDS011;10951;59.656;9.666;2022-12-18T08:27:20;1.15;;;1.05;;
21579;SDS011;10951;59.656;9.666;2022-12-18T08:29:56;1.35;;;1.30;;
21579;SDS011;10951;59.656;9.666;2022-12-18T08:32:23;1.00;;;1.00;;
21579;SDS011;10951;59.656;9.666;2022-12-18T08:34:51;0.60;;;0.60;;
21579;SDS011;10951;59.656;9.666;2022-12-18T08:37:18;0.70;;;0.70;;
21579;SDS011;10951;59.656;9.666;2022-12-18T08:39:45;1.30;;;1.30;;
21579;SDS011;10951;59.656;9.666;2022-12-18T08:42:12;0.22;;;0.22;;
21579;SDS011;10951;59.656;9.666;2022-12-18T08:44:58;1.10;;;0.90;;
21579;SDS011;10951;59.656;9.666;2022-12-18T08:47:25;0.73;;;0.73;;
21579;SDS011;10951;59.656;9.666;2022-12-18T08:49:52;0.82;;;0.80;;
21579;SDS011;10951;59.656;9.666;2022-12-18T08:52:19;2.20;;;0.50;;
21579;SDS011;10951;59.656;9.666;2022-12-18T08:54:46;1.50;;;1.40;;
21579;SDS011;10951;59.656;9.666;2022-12-18T08:57:13;0.20;;;0.20;;
21579;SDS011;10951;59.656;9.666;2022-12-18T08:59:39;0.20;;;0.20;;
21579;SDS011;10951;59.656;9.666;2022-12-18T09:02:08;0.10;;;0.10;;
21579;SDS011;10951;59.656;9.666;2022-12-18T09:04:38;0.63;;;0.63;;
21579;SDS011;10951;59.656;9.666;2022-12-18T09:07:06;0.40;;;0.40;;
21579;SDS011;10951;59.656;9.666;2022-12-18T09:09:33;0.10;;;0.10;;
21579;SDS011;10951;59.656;9.666;2022-12-18T09:12:00;0.10;;;0.10;;
21579;SDS011;10951;59.656;9.666;2022-12-18T09:14:27;0.22;;;0.22;;
21579;SDS011;10951;59.656;9.666;2022-12-18T09:16:53;0.10;;;0.10;;
21579;SDS011;10951;59.656;9.666;2022-12-18T09:19:21;0.35;;;0.35;;
21579;SDS011;10951;59.656;9.666;2022-12-18T09:21:48;0.10;;;0.10;;
21579;SDS011;10951;59.656;9.666;2022-12-18T09:24:15;0.10;;;0.10;;
21579;SDS011;10951;59.656;9.666;2022-12-18T09:26:42;0.17;;;0.17;;
21579;SDS011;10951;59.656;9.666;2022-12-18T09:29:12;0.25;;;0.25;;
21579;SDS011;10951;59.656;9.666;2022-12-18T09:31:41;0.10;;;0.10;;
21579;SDS011;10951;59.656;9.666;2022-12-18T09:34:08;0.55;;;0.55;;
21579;SDS011;10951;59.656;9.666;2022-12-18T09:36:35;0.10;;;0.10;;
21579;SDS011;10951;59.656;9.666;2022-12-18T09:39:02;0.10;;;0.10;;
21579;SDS011;10951;59.656;9.666;2022-12-18T09:44:02;0.10;;;0.10;;
21579;SDS011;10951;59.656;9.666;2022-12-18T09:46:47;0.20;;;0.20;;
21579;SDS011;10951;59.656;9.666;2022-12-18T09:49:20;0.10;;;0.10;;
21579;SDS011;10951;59.656;9.666;2022-12-18T09:54:39;0.10;;;0.10;;
21579;SDS011;10951;59.656;9.666;2022-12-18T09:57:13;0.63;;;0.63;;
21579;SDS011;10951;59.656;9.666;2022-12-18T09:59:41;0.82;;;0.82;;
21579;SDS011;10951;59.656;9.666;2022-12-18T10:02:19;4.68;;;1.83;;
21579;SDS011;10951;59.656;9.666;2022-12-18T10:04:55;0.20;;;0.20;;
21579;SDS011;10951;59.656;9.666;2022-12-18T10:10:21;1.95;;;1.58;;
21579;SDS011;10951;59.656;9.666;2022-12-18T10:13:10;0.30;;;0.30;;
21579;SDS011;10951;59.656;9.666;2022-12-18T10:21:17;0.20;;;0.20;;
21579;SDS011;10951;59.656;9.666;2022-12-18T10:23:54;0.10;;;0.10;;
21579;SDS011;10951;59.656;9.666;2022-12-18T10:26:33;0.20;;;0.20;;
21579;SDS011;10951;59.656;9.666;2022-12-18T10:29:00;0.20;;;0.20;;
21579;SDS011;10951;59.656;9.666;2022-12-18T10:31:31;0.25;;;0.25;;
21579;SDS011;10951;59.656;9.666;2022-12-18T10:33:58;0.30;;;0.30;;
21579;SDS011;10951;59.656;9.666;2022-12-18T10:36:24;1.20;;;1.15;;
21579;SDS011;10951;59.656;9.666;2022-12-18T10:38:51;1.63;;;1.52;;
21579;SDS011;10951;59.656;9.666;2022-12-18T10:43:47;3.50;;;1.00;;
21579;SDS011;10951;59.656;9.666;2022-12-18T10:46:15;0.20;;;0.20;;
21579;SDS011;10951;59.656;9.666;2022-12-18T10:51:29;0.77;;;0.77;;
21579;SDS011;10951;59.656;9.666;2022-12-18T10:54:03;1.00;;;0.95;;
21579;SDS011;10951;59.656;9.666;2022-12-18T10:56:34;1.63;;;0.95;;
21579;SDS011;10951;59.656;9.666;2022-12-18T10:59:03;0.30;;;0.30;;
21579;SDS011;10951;59.656;9.666;2022-12-18T11:01:51;0.10;;;0.10;;
21579;SDS011;10951;59.656;9.666;2022-12-18T11:06:54;0.20;;;0.20;;
21579;SDS011;10951;59.656;9.666;2022-12-18T11:11:56;1.65;;;1.55;;
21579;SDS011;10951;59.656;9.666;2022-12-18T11:16:59;0.20;;;0.20;;
21579;SDS011;10951;59.656;9.666;2022-12-18T11:19:54;0.10;;;0.10;;
21579;SDS011;10951;59.656;9.666;2022-12-18T11:22:24;0.30;;;0.30;;
21579;SDS011;10951;59.656;9.666;2022-12-18T11:24:59;0.10;;;0.10;;
21579;SDS011;10951;59.656;9.666;2022-12-18T11:27:54;0.10;;;0.10;;
21579;SDS011;10951;59.656;9.666;2022-12-18T11:30:27;0.47;;;0.47;;
21579;SDS011;10951;59.656;9.666;2022-12-18T11:33:06;0.20;;;0.20;;
21579;SDS011;10951;59.656;9.666;2022-12-18T11:35:45;0.22;;;0.22;;
21579;SDS011;10951;59.656;9.666;2022-12-18T11:38:23;0.10;;;0.10;;
21579;SDS011;10951;59.656;9.666;2022-12-18T11:40:58;0.10;;;0.10;;
21579;SDS011;10951;59.656;9.666;2022-12-18T11:49:00;0.38;;;0.38;;
21579;SDS011;10951;59.656;9.666;2022-12-18T11:51:44;0.10;;;0.10;;
21579;SDS011;10951;59.656;9.666;2022-12-18T11:54:19;0.40;;;0.40;;
21579;SDS011;10951;59.656;9.666;2022-12-18T11:56:48;0.40;;;0.40;;
21579;SDS011;10951;59.656;9.666;2022-12-18T12:18:00;1.70;;;1.42;;
21579;SDS011;10951;59.656;9.666;2022-12-18T12:34:09;0.50;;;0.50;;
21579;SDS011;10951;59.656;9.666;2022-12-18T12:36:51;0.20;;;0.20;;
21579;SDS011;10951;59.656;9.666;2022-12-18T12:39:39;0.45;;;0.45;;
21579;SDS011;10951;59.656;9.666;2022-12-18T12:45:26;0.20;;;0.20;;
21579;SDS011;10951;59.656;9.666;2022-12-18T12:48:07;0.10;;;0.10;;
21579;SDS011;10951;59.656;9.666;2022-12-18T12:50:42;0.20;;;0.20;;
21579;SDS011;10951;59.656;9.666;2022-12-18T12:53:16;0.95;;;0.95;;
21579;SDS011;10951;59.656;9.666;2022-12-18T12:55:51;1.30;;;1.30;;
21579;SDS011;10951;59.656;9.666;2022-12-18T12:58:26;0.50;;;0.50;;
21579;SDS011;10951;59.656;9.666;2022-12-18T13:06:53;0.73;;;0.73;;
21579;SDS011;10951;59.656;9.666;2022-12-18T13:09:30;0.60;;;0.60;;
21579;SDS011;10951;59.656;9.666;2022-12-18T13:12:03;0.28;;;0.28;;
21579;SDS011;10951;59.656;9.666;2022-12-18T13:14:54;0.47;;;0.47;;
21579;SDS011;10951;59.656;9.666;2022-12-18T13:17:48;0.73;;;0.50;;
21579;SDS011;10951;59.656;9.666;2022-12-18T13:20:32;1.08;;;0.82;;
21579;SDS011;10951;59.656;9.666;2022-12-18T13:31:13;0.40;;;0.40;;
21579;SDS011;10951;59.656;9.666;2022-12-18T13:33:42;0.47;;;0.47;;
21579;SDS011;10951;59.656;9.666;2022-12-18T13:36:31;0.25;;;0.25;;
21579;SDS011;10951;59.656;9.666;2022-12-18T13:42:34;0.10;;;0.10;;
21579;SDS011;10951;59.656;9.666;2022-12-18T13:45:00;0.20;;;0.20;;
21579;SDS011;10951;59.656;9.666;2022-12-18T13:50:00;0.40;;;0.40;;
21579;SDS011;10951;59.656;9.666;2022-12-18T13:55:16;0.43;;;0.43;;
21579;SDS011;10951;59.656;9.666;2022-12-18T13:57:45;1.42;;;1.33;;
21579;SDS011;10951;59.656;9.666;2022-12-18T14:00:23;0.68;;;0.68;;
21579;SDS011;10951;59.656;9.666;2022-12-18T14:02:51;0.20;;;0.20;;
21579;SDS011;10951;59.656;9.666;2022-12-18T14:10:28;0.80;;;0.68;;
21579;SDS011;10951;59.656;9.666;2022-12-18T14:13:23;0.55;;;0.55;;
21579;SDS011;10951;59.656;9.666;2022-12-18T14:15:54;1.77;;;1.63;;
21579;SDS011;10951;59.656;9.666;2022-12-18T14:18:25;0.30;;;0.30;;
21579;SDS011;10951;59.656;9.666;2022-12-18T14:20:59;1.88;;;1.55;;
21579;SDS011;10951;59.656;9.666;2022-12-18T14:26:18;0.75;;;0.75;;
21579;SDS011;10951;59.656;9.666;2022-12-18T14:28:49;1.17;;;1.15;;
21579;SDS011;10951;59.656;9.666;2022-12-18T14:31:18;0.75;;;0.75;;
21579;SDS011;10951;59.656;9.666;2022-12-18T14:33:46;4.70;;;2.38;;
21579;SDS011;10951;59.656;9.666;2022-12-18T14:36:20;3.50;;;3.20;;
21579;SDS011;10951;59.656;9.666;2022-12-18T14:38:50;1.85;;;1.75;;
21579;SDS011;10951;59.656;9.666;2022-12-18T14:41:20;1.48;;;1.42;;
21579;SDS011;10951;59.656;9.666;2022-12-18T14:43:49;1.48;;;1.42;;
21579;SDS011;10951;59.656;9.666;2022-12-18T14:49:17;12.50;;;3.20;;
21579;SDS011;10951;59.656;9.666;2022-12-18T14:51:48;1.90;;;1.80;;
21579;SDS011;10951;59.656;9.666;2022-12-18T14:54:18;2.22;;;2.10;;
21579;SDS011;10951;59.656;9.666;2022-12-18T14:56:47;2.90;;;2.70;;
21579;SDS011;10951;59.656;9.666;2022-12-18T14:59:18;2.45;;;2.33;;
21579;SDS011;10951;59.656;9.666;2022-12-18T15:01:56;2.70;;;2.20;;
21579;SDS011;10951;59.656;9.666;2022-12-18T15:04:28;1.02;;;1.02;;
21579;SDS011;10951;59.656;9.666;2022-12-18T15:07:22;3.03;;;2.78;;
21579;SDS011;10951;59.656;9.666;2022-12-18T15:10:07;1.25;;;1.25;;
21579;SDS011;10951;59.656;9.666;2022-12-18T15:12:41;3.85;;;2.78;;
21579;SDS011;10951;59.656;9.666;2022-12-18T15:20:51;2.17;;;1.98;;
21579;SDS011;10951;59.656;9.666;2022-12-18T15:25:55;3.38;;;2.65;;
21579;SDS011;10951;59.656;9.666;2022-12-18T15:33:36;3.60;;;1.80;;
21579;SDS011;10951;59.656;9.666;2022-12-18T15:36:09;8.38;;;1.65;;
21579;SDS011;10951;59.656;9.666;2022-12-18T15:38:38;3.42;;;3.15;;
21579;SDS011;10951;59.656;9.666;2022-12-18T15:41:05;1.95;;;1.85;;
21579;SDS011;10951;59.656;9.666;2022-12-18T15:43:39;5.50;;;5.05;;
21579;SDS011;10951;59.656;9.666;2022-12-18T15:46:11;2.55;;;2.45;;
21579;SDS011;10951;59.656;9.666;2022-12-18T15:48:48;1.40;;;1.40;;
21579;SDS011;10951;59.656;9.666;2022-12-18T15:51:37;2.38;;;2.17;;
21579;SDS011;10951;59.656;9.666;2022-12-18T15:54:04;0.73;;;0.73;;
21579;SDS011;10951;59.656;9.666;2022-12-18T15:56:35;0.80;;;0.80;;
21579;SDS011;10951;59.656;9.666;2022-12-18T15:59:22;3.15;;;1.90;;
21579;SDS011;10951;59.656;9.666;2022-12-18T16:01:50;10.32;;;3.08;;
21579;SDS011;10951;59.656;9.666;2022-12-18T16:04:19;8.90;;;3.97;;
21579;SDS011;10951;59.656;9.666;2022-12-18T16:06:47;0.60;;;0.60;;
21579;SDS011;10951;59.656;9.666;2022-12-18T16:09:36;3.22;;;2.10;;
21579;SDS011;10951;59.656;9.666;2022-12-18T16:12:03;1.30;;;1.25;;
21579;SDS011;10951;59.656;9.666;2022-12-18T16:14:31;1.70;;;1.60;;
21579;SDS011;10951;59.656;9.666;2022-12-18T16:19:29;1.65;;;1.42;;
21579;SDS011;10951;59.656;9.666;2022-12-18T16:21:57;2.55;;;2.35;;
21579;SDS011;10951;59.656;9.666;2022-12-18T16:24:28;6.43;;;4.60;;
21579;SDS011;10951;59.656;9.666;2022-12-18T16:26:57;3.28;;;2.80;;
21579;SDS011;10951;59.656;9.666;2022-12-18T16:29:26;1.98;;;1.88;;
21579;SDS011;10951;59.656;9.666;2022-12-18T16:31:55;1.48;;;1.45;;
21579;SDS011;10951;59.656;9.666;2022-12-18T16:34:26;3.25;;;2.72;;
21579;SDS011;10951;59.656;9.666;2022-12-18T16:37:00;3.05;;;2.55;;
21579;SDS011;10951;59.656;9.666;2022-12-18T16:39:34;0.20;;;0.20;;
21579;SDS011;10951;59.656;9.666;2022-12-18T16:42:08;1.42;;;1.33;;
21579;SDS011;10951;59.656;9.666;2022-12-18T16:44:43;0.95;;;0.95;;
21579;SDS011;10951;59.656;9.666;2022-12-18T16:47:10;0.90;;;0.90;;
21579;SDS011;10951;59.656;9.666;2022-12-18T16:49:40;10.05;;;1.25;;
21579;SDS011;10951;59.656;9.666;2022-12-18T16:52:08;0.40;;;0.40;;
21579;SDS011;10951;59.656;9.666;2022-12-18T16:54:35;0.77;;;0.77;;
21579;SDS011;10951;59.656;9.666;2022-12-18T16:57:02;1.42;;;0.73;;
21579;SDS011;10951;59.656;9.666;2022-12-18T16:59:33;2.03;;;1.85;;
21579;SDS011;10951;59.656;9.666;2022-12-18T17:01:59;0.75;;;0.75;;
21579;SDS011;10951;59.656;9.666;2022-12-18T17:04:27;0.40;;;0.40;;
21579;SDS011;10951;59.656;9.666;2022-12-18T17:06:54;1.88;;;0.40;;
21579;SDS011;10951;59.656;9.666;2022-12-18T17:09:21;0.95;;;0.95;;
21579;SDS011;10951;59.656;9.666;2022-12-18T17:11:51;0.15;;;0.15;;
21579;SDS011;10951;59.656;9.666;2022-12-18T17:14:20;0.75;;;0.75;;
21579;SDS011;10951;59.656;9.666;2022-12-18T17:16:48;0.17;;;0.17;;
21579;SDS011;10951;59.656;9.666;2022-12-18T17:19:35;0.98;;;0.98;;
21579;SDS011;10951;59.656;9.666;2022-12-18T17:22:03;1.48;;;0.80;;
21579;SDS011;10951;59.656;9.666;2022-12-18T17:24:30;0.28;;;0.28;;
21579;SDS011;10951;59.656;9.666;2022-12-18T17:27:00;0.10;;;0.10;;
21579;SDS011;10951;59.656;9.666;2022-12-18T17:29:28;1.15;;;1.10;;
21579;SDS011;10951;59.656;9.666;2022-12-18T17:31:55;0.13;;;0.13;;
21579;SDS011;10951;59.656;9.666;2022-12-18T17:34:23;0.10;;;0.10;;
21579;SDS011;10951;59.656;9.666;2022-12-18T17:36:50;1.30;;;0.67;;
21579;SDS011;10951;59.656;9.666;2022-12-18T17:39:18;1.67;;;1.52;;
21579;SDS011;10951;59.656;9.666;2022-12-18T17:41:46;0.20;;;0.20;;
21579;SDS011;10951;59.656;9.666;2022-12-18T17:44:14;0.32;;;0.32;;
21579;SDS011;10951;59.656;9.666;2022-12-18T17:46:42;2.20;;;1.52;;
21579;SDS011;10951;59.656;9.666;2022-12-18T17:49:09;1.08;;;0.95;;
21579;SDS011;10951;59.656;9.666;2022-12-18T17:51:37;0.08;;;0.08;;
21579;SDS011;10951;59.656;9.666;2022-12-18T17:54:04;0.30;;;0.30;;
21579;SDS011;10951;59.656;9.666;2022-12-18T17:56:32;0.10;;;0.10;;
21579;SDS011;10951;59.656;9.666;2022-12-18T17:58:59;0.70;;;0.70;;
21579;SDS011;10951;59.656;9.666;2022-12-18T18:01:26;0.30;;;0.30;;
21579;SDS011;10951;59.656;9.666;2022-12-18T18:03:53;0.40;;;0.40;;